Bunker Hill Village, Texas
Current Conditions -  °F | °C
As of 1:55 AM on Friday 19 Dec 2014 (Local Time) from KMCJ Reporting Station
NA  
Wind Chill: 57°   Ceiling: NA
Heat Index: 57°   Visibility: NA
Dew Point: 57°   Wind: 13mph
Humidity: 100%   Direction: 20°NNE
Pressure: 29.98"   Gusts: NA
Location:  29.7698°N, 95.5164°W
Report Text: KMCJ 190755Z AUTO 02011KT 14/14 A2998 RMK AO1
Loading
Personal Weather Stations






























Interactive Weather Map New forecast layout! Learn more

10-Day Weather Forecast

Advertisements
Track Severe Weather on mobile